www.nordhorn-wetter.com
Wetterdaten: aktuell Sonntag, 21.07.2024 17:51
Datum Zeit Temp. A. BodenT -5cm Temp +10cm Extra Temp Feuchte A. BlattFeuchte Bod.Feu -5cm Luftdruck Regen Wind Richtung Richtung Sonnenschein ET UV Solar Taupunkt Windben
21.07.2024 17:51 23,9 C 25,6 C 22,8 C 24,0 C 87 % 15 lf 7 cb 1007,1 hPa 0,4 mm 0,0 km/h (0 Bft) N-NO 15 0 min 0,101 mm 0,0 UV-I 33 W/m 21,6 C 0,0 km/h (0 Bft)
21.07.2024 16:51 24,9 C 25,6 C 25,0 C 24,0 C 80 % 0 lf 7 cb 1006,9 hPa 0,0 mm 3,8 km/h (1 Bft) NW 323 3 min 0,229 mm 0,6 UV-I 83 W/m 21,2 C 6,4 km/h (2 Bft)
21.07.2024 15:53 24,9 C 25,6 C 27,2 C 24,0 C 80 % 0 lf 7 cb 1006,6 hPa 0,0 mm 2,5 km/h (1 Bft) O-NO 61 2 min 0,152 mm 2,9 UV-I 453 W/m 21,2 C 3,2 km/h (1 Bft)
21.07.2024 14:55 23,9 C 25,6 C 25,0 C 24,0 C 85 % 15 lf 7 cb 1006,2 hPa 0,0 mm 6,2 km/h (2 Bft) NO 42 0 min 0,229 mm 2,6 UV-I 369 W/m 21,2 C 8,0 km/h (2 Bft)
21.07.2024 13:57 24,7 C 25,6 C 28,9 C 23,4 C 86 % 0 lf 8 cb 1006,3 hPa 0,0 mm 4,0 km/h (1 Bft) NW 317 9 min 0,178 mm 2,9 UV-I 362 W/m 22,2 C 6,4 km/h (2 Bft)
21.07.2024 12:57 22,9 C 25,0 C 25,6 C 23,4 C 93 % 15 lf 8 cb 1006,4 hPa 0,8 mm 6,4 km/h (2 Bft) W-NW 285 8 min 0,051 mm 3,6 UV-I 450 W/m 21,7 C 9,7 km/h (2 Bft)
21.07.2024 11:59 22,2 C 25,0 C 21,7 C 23,4 C 90 % 15 lf 8 cb 1006,2 hPa 1,4 mm 0,0 km/h (0 Bft) S-SO 163 0 min 0,127 mm 0,6 UV-I 72 W/m 20,5 C 0,0 km/h (0 Bft)
21.07.2024 11:01 25,3 C 25,0 C 26,1 C 23,4 C 75 % 4 lf 8 cb 1005,8 hPa 0,0 mm 8,5 km/h (2 Bft) SW 219 3 min 0,127 mm 0,0 UV-I 54 W/m 20,5 C 16,1 km/h (3 Bft)
21.07.2024 10:04 25,4 C 24,4 C 32,8 C 23,4 C 74 % 0 lf 8 cb 1005,0 hPa 0,0 mm 1,9 km/h (1 Bft) O-SO 115 41 min 0,228 mm 2,3 UV-I 482 W/m 20,4 C 4,8 km/h (1 Bft)
21.07.2024 09:03 24,2 C 23,9 C 30,0 C 22,9 C 78 % 0 lf 8 cb 1004,9 hPa 0,0 mm 1,6 km/h (1 Bft) O-SO 112 54 min 0,000 mm 1,7 UV-I 335 W/m 20,1 C 4,8 km/h (1 Bft)
21.07.2024 08:06 21,5 C 23,9 C 27,8 C 22,9 C 87 % 0 lf 8 cb 1004,9 hPa 0,0 mm 0,0 km/h (0 Bft) S-SO 160 56 min 0,102 mm 1,0 UV-I 287 W/m 19,2 C 0,0 km/h (0 Bft)
21.07.2024 07:08 20,2 C 24,4 C 20,0 C 22,9 C 91 % 0 lf 8 cb 1004,9 hPa 0,0 mm 3,0 km/h (1 Bft) SW 215 12 min 0,025 mm 0,0 UV-I 122 W/m 18,7 C 6,4 km/h (2 Bft)
21.07.2024 06:10 20,1 C 24,4 C 19,4 C 23,4 C 90 % 0 lf 8 cb 1005,0 hPa 0,0 mm 0,0 km/h (0 Bft) S-SW 213 2 min 0,000 mm 0,0 UV-I 14 W/m 18,4 C 0,0 km/h (0 Bft)
21.07.2024 05:12 20,8 C 25,0 C 19,4 C 23,4 C 87 % 0 lf 7 cb 1004,7 hPa 0,0 mm 0,0 km/h (0 Bft) W 263 0 min 0,000 mm 0,0 UV-I 0 W/m 18,6 C 0,0 km/h (0 Bft)
21.07.2024 04:09 21,8 C 25,0 C 20,6 C 24,0 C 85 % 0 lf 7 cb 1004,8 hPa 0,0 mm 0,0 km/h (0 Bft) W 263 0 min 0,000 mm 0,0 UV-I 0 W/m 19,2 C 0,0 km/h (0 Bft)
21.07.2024 03:11 22,4 C 25,6 C 21,1 C 24,6 C 82 % 0 lf 7 cb 1004,7 hPa 0,0 mm 0,0 km/h (0 Bft) W 265 0 min 0,000 mm 0,0 UV-I 0 W/m 19,2 C 0,0 km/h (0 Bft)
21.07.2024 02:13 22,9 C 26,1 C 21,1 C 24,6 C 80 % 0 lf 7 cb 1005,0 hPa 0,0 mm 0,0 km/h (0 Bft) W 264 0 min 0,000 mm 0,0 UV-I 0 W/m 19,3 C 0,0 km/h (0 Bft)
21.07.2024 01:15 23,2 C 26,1 C 22,2 C 24,6 C 79 % 0 lf 7 cb 1005,2 hPa 0,0 mm 3,6 km/h (1 Bft) W 262 0 min 0,000 mm 0,0 UV-I 0 W/m 19,3 C 6,4 km/h (2 Bft)
21.07.2024 00:15 25,1 C 26,7 C 22,8 C 25,1 C 81 % 15 lf 7 cb 1005,1 hPa 0,0 mm 0,0 km/h (0 Bft) W-SW 239 0 min 0,000 mm 0,0 UV-I 0 W/m 21,6 C 0,0 km/h (0 Bft)
20.07.2024 23:16 25,9 C 27,2 C 25,0 C 25,1 C 70 % 0 lf 7 cb 1005,6 hPa 0,0 mm 5,3 km/h (1 Bft) W-SW 257 0 min 0,025 mm 0,0 UV-I 0 W/m 20,0 C 8,0 km/h (2 Bft)
20.07.2024 22:18 27,0 C 27,2 C 26,1 C 25,7 C 68 % 0 lf 6 cb 1005,1 hPa 0,0 mm 2,3 km/h (1 Bft) SO 127 0 min 0,001 mm 0,0 UV-I 0 W/m 20,6 C 4,8 km/h (1 Bft)
20.07.2024 21:20 29,1 C 27,8 C 26,7 C 25,7 C 63 % 0 lf 6 cb 1005,3 hPa 0,0 mm 0,0 km/h (0 Bft) SO 138 0 min 0,050 mm 0,0 UV-I 13 W/m 21,3 C 0,0 km/h (0 Bft)
20.07.2024 20:20 30,5 C 27,8 C 28,3 C 25,7 C 57 % 0 lf 6 cb 1005,4 hPa 0,0 mm 0,0 km/h (0 Bft) SO 145 0 min 0,102 mm 0,0 UV-I 79 W/m 21,0 C 0,0 km/h (0 Bft)
20.07.2024 19:22 31,6 C 28,3 C 29,4 C 25,7 C 51 % 0 lf 6 cb 1005,4 hPa 0,0 mm 0,0 km/h (0 Bft) S 177 41 min 0,254 mm 0,7 UV-I 103 W/m 20,2 C 0,0 km/h (0 Bft)
20.07.2024 18:24 33,0 C 28,3 C 30,6 C 25,7 C 48 % 0 lf 6 cb 1005,8 hPa 0,0 mm 3,9 km/h (1 Bft) SW 220 24 min 0,381 mm 1,6 UV-I 337 W/m 20,5 C 6,4 km/h (2 Bft)
20.07.2024 18:00 33,1 C 28,3 C 31,1 C 25,7 C 49 % 0 lf 5 cb 1005,9 hPa 0,0 mm 5,0 km/h (1 Bft) W 275 0 min 0,000 mm 2,1 UV-I 393 W/m 20,9 C 9,7 km/h (2 Bft)
_ Min-Zeit 06:56 09:21 06:57 09:46 18:07 17:04 18:14 04:48 - 17:51 - - - - - - 06:56 17:51
Minimum _ 19,9 C 23,9 C 19,4 C 22,9 C 46 % 0 lf 5 cb 1004,5 hPa - 0,0 km/h (0 Bft) - - - - - - 18,2 C 0,0 km/h (0 Bft)
_ Max-Zeit 18:37 19:29 09:27 22:43 12:51 17:51 14:13 17:51 17:33 11:07 - - 09:08 18:01 13:01 12:49 13:57 11:07
Maximum _ 33,1 C 28,3 C 33,3 C 25,7 C 94 % 15 lf 8 cb 1007,1 hPa 0,2 mm 12,3 km/h
S (2 Bft)
- - 4 min 0,381 mm 5,1 UV-I 921 W/m 22,2 C 17,7 km/h
S (3 Bft)
Durchschnitt _ 25,3 C 26,0 C 25,3 C 24,3 C 76 % 3 lf 7 cb 1005,5 hPa #2,6 mm 2,0 km/h (1 Bft) W - #3:02 h #1,600 mm 1,7 UV-I 206 W/m 20,3 C 3,8 km/h (1 Bft)
© 2006-2024 Nordhorn-Wetter.com